KSCR/SCR METAR and TAF weather

Enter ICAO airport designator
Station Type Date Time Source
KSCR METAR 2020/12/01 21:35 UTC NOAA

KSCR 012135Z AUTO 30005KT 10SM SCT050 05/M05 A2998 RMK AO2 T00501051


Station Type Date Time Source
KSCR Decoded METAR 2020/12/01 21:35 UTC NOAA

Station name not available
Dec 01, 2020 - 04:35 PM EST / 2020.12.01 2135 UTC
Wind: from the WNW (300 degrees) at 6 MPH (5 KT):0
Visibility: 10 mile(s):0
Sky conditions: partly cloudy
Temperature: 41.0 F (5.0 C)
Dew Point: 22.8 F (-5.1 C)
Relative Humidity: 47%
Pressure (altimeter): 29.98 in. Hg (1015 hPa)
ob: KSCR 012135Z AUTO 30005KT 10SM SCT050 05/M05 A2998 RMK AO2 T00501051
cycle: 21

Station Type Date Time Source
KSCR TAF UTC NOAA

Error!

Example: see airport list